sensor_id;sensor_type;location;lat;lon;timestamp;pressure;altitude;pressure_sealevel;temperature
19040;BMP180;9652;49.014;12.052;2023-12-20T00:02:17;97738.00;;;8.00
19040;BMP180;9652;49.014;12.052;2023-12-20T00:04:44;97725.00;;;8.00
19040;BMP180;9652;49.014;12.052;2023-12-20T00:07:11;97715.00;;;8.00
19040;BMP180;9652;49.014;12.052;2023-12-20T00:09:38;97708.00;;;8.00
19040;BMP180;9652;49.014;12.052;2023-12-20T00:12:06;97694.00;;;8.00
19040;BMP180;9652;49.014;12.052;2023-12-20T00:14:34;97694.00;;;8.10
19040;BMP180;9652;49.014;12.052;2023-12-20T00:17:01;97697.00;;;8.10
19040;BMP180;9652;49.014;12.052;2023-12-20T00:19:28;97683.00;;;8.10
19040;BMP180;9652;49.014;12.052;2023-12-20T00:21:55;97687.00;;;8.10
19040;BMP180;9652;49.014;12.052;2023-12-20T00:24:22;97698.00;;;8.10
19040;BMP180;9652;49.014;12.052;2023-12-20T00:26:49;97691.00;;;8.10
19040;BMP180;9652;49.014;12.052;2023-12-20T00:29:16;97689.00;;;8.10
19040;BMP180;9652;49.014;12.052;2023-12-20T00:31:45;97693.00;;;8.10
19040;BMP180;9652;49.014;12.052;2023-12-20T00:34:12;97688.00;;;8.10
19040;BMP180;9652;49.014;12.052;2023-12-20T00:36:39;97694.00;;;8.10
19040;BMP180;9652;49.014;12.052;2023-12-20T00:39:06;97686.00;;;8.10
19040;BMP180;9652;49.014;12.052;2023-12-20T00:41:33;97682.00;;;8.10
19040;BMP180;9652;49.014;12.052;2023-12-20T00:44:00;97679.00;;;8.10
19040;BMP180;9652;49.014;12.052;2023-12-20T00:46:27;97684.00;;;8.10
19040;BMP180;9652;49.014;12.052;2023-12-20T00:48:56;97672.00;;;8.20
19040;BMP180;9652;49.014;12.052;2023-12-20T00:51:23;97685.00;;;8.20
19040;BMP180;9652;49.014;12.052;2023-12-20T00:53:50;97689.00;;;8.20
19040;BMP180;9652;49.014;12.052;2023-12-20T00:56:20;97690.00;;;8.20
19040;BMP180;9652;49.014;12.052;2023-12-20T00:58:47;97687.00;;;8.30
19040;BMP180;9652;49.014;12.052;2023-12-20T01:01:15;97698.00;;;8.30
19040;BMP180;9652;49.014;12.052;2023-12-20T01:03:43;97676.00;;;8.30
19040;BMP180;9652;49.014;12.052;2023-12-20T01:06:11;97684.00;;;8.30
19040;BMP180;9652;49.014;12.052;2023-12-20T01:08:38;97692.00;;;8.30
19040;BMP180;9652;49.014;12.052;2023-12-20T01:11:06;97689.00;;;8.20
19040;BMP180;9652;49.014;12.052;2023-12-20T01:13:33;97682.00;;;8.20
19040;BMP180;9652;49.014;12.052;2023-12-20T01:16:00;97696.00;;;8.20
19040;BMP180;9652;49.014;12.052;2023-12-20T01:18:27;97683.00;;;8.20
19040;BMP180;9652;49.014;12.052;2023-12-20T01:20:54;97687.00;;;8.10
19040;BMP180;9652;49.014;12.052;2023-12-20T01:23:22;97685.00;;;8.10
19040;BMP180;9652;49.014;12.052;2023-12-20T01:25:49;97632.00;;;8.10
19040;BMP180;9652;49.014;12.052;2023-12-20T01:28:16;97677.00;;;8.00
19040;BMP180;9652;49.014;12.052;2023-12-20T01:30:43;97682.00;;;8.00
19040;BMP180;9652;49.014;12.052;2023-12-20T01:33:11;97690.00;;;8.00
19040;BMP180;9652;49.014;12.052;2023-12-20T01:35:38;97670.00;;;7.90
19040;BMP180;9652;49.014;12.052;2023-12-20T01:38:05;97669.00;;;7.90
19040;BMP180;9652;49.014;12.052;2023-12-20T01:40:32;97667.00;;;7.90
19040;BMP180;9652;49.014;12.052;2023-12-20T01:43:00;97663.00;;;7.90
19040;BMP180;9652;49.014;12.052;2023-12-20T01:45:27;97661.00;;;7.80
19040;BMP180;9652;49.014;12.052;2023-12-20T01:47:56;97668.00;;;7.80
19040;BMP180;9652;49.014;12.052;2023-12-20T01:50:24;97666.00;;;7.80
19040;BMP180;9652;49.014;12.052;2023-12-20T01:52:53;97660.00;;;7.80
19040;BMP180;9652;49.014;12.052;2023-12-20T01:55:24;97651.00;;;7.80
19040;BMP180;9652;49.014;12.052;2023-12-20T01:57:53;97643.00;;;7.70
19040;BMP180;9652;49.014;12.052;2023-12-20T02:00:22;97645.00;;;7.70
19040;BMP180;9652;49.014;12.052;2023-12-20T02:02:53;97638.00;;;7.70
19040;BMP180;9652;49.014;12.052;2023-12-20T02:05:21;97641.00;;;7.70
19040;BMP180;9652;49.014;12.052;2023-12-20T02:07:48;97639.00;;;7.70
19040;BMP180;9652;49.014;12.052;2023-12-20T02:10:16;97642.00;;;7.70
19040;BMP180;9652;49.014;12.052;2023-12-20T02:12:43;97641.00;;;7.70
19040;BMP180;9652;49.014;12.052;2023-12-20T02:15:11;97642.00;;;7.70
19040;BMP180;9652;49.014;12.052;2023-12-20T02:17:40;97623.00;;;7.70
19040;BMP180;9652;49.014;12.052;2023-12-20T02:20:07;97623.00;;;7.70
19040;BMP180;9652;49.014;12.052;2023-12-20T02:22:36;97626.00;;;7.70
19040;BMP180;9652;49.014;12.052;2023-12-20T02:25:04;97615.00;;;7.70
19040;BMP180;9652;49.014;12.052;2023-12-20T02:27:31;97620.00;;;7.70
19040;BMP180;9652;49.014;12.052;2023-12-20T02:29:58;97612.00;;;7.70
19040;BMP180;9652;49.014;12.052;2023-12-20T02:32:25;97610.00;;;7.70
19040;BMP180;9652;49.014;12.052;2023-12-20T02:34:53;97612.00;;;7.70
19040;BMP180;9652;49.014;12.052;2023-12-20T02:37:20;97609.00;;;7.70
19040;BMP180;9652;49.014;12.052;2023-12-20T02:39:49;97604.00;;;7.70
19040;BMP180;9652;49.014;12.052;2023-12-20T02:42:16;97589.00;;;7.70
19040;BMP180;9652;49.014;12.052;2023-12-20T02:44:43;97600.00;;;7.70
19040;BMP180;9652;49.014;12.052;2023-12-20T02:47:10;97590.00;;;7.70
19040;BMP180;9652;49.014;12.052;2023-12-20T02:49:37;97592.00;;;7.70
19040;BMP180;9652;49.014;12.052;2023-12-20T02:52:05;97613.00;;;7.70
19040;BMP180;9652;49.014;12.052;2023-12-20T02:54:32;97594.00;;;7.80
19040;BMP180;9652;49.014;12.052;2023-12-20T02:57:00;97594.00;;;7.80
19040;BMP180;9652;49.014;12.052;2023-12-20T02:59:27;97602.00;;;7.80
19040;BMP180;9652;49.014;12.052;2023-12-20T03:01:54;97605.00;;;7.80
19040;BMP180;9652;49.014;12.052;2023-12-20T03:04:21;97598.00;;;7.80
19040;BMP180;9652;49.014;12.052;2023-12-20T03:06:48;97604.00;;;7.80
19040;BMP180;9652;49.014;12.052;2023-12-20T03:09:15;97596.00;;;7.80
19040;BMP180;9652;49.014;12.052;2023-12-20T03:11:43;97595.00;;;7.80
19040;BMP180;9652;49.014;12.052;2023-12-20T03:14:11;97586.00;;;7.80
19040;BMP180;9652;49.014;12.052;2023-12-20T03:16:38;97577.00;;;7.80
19040;BMP180;9652;49.014;12.052;2023-12-20T03:19:05;97583.00;;;7.90
19040;BMP180;9652;49.014;12.052;2023-12-20T03:21:32;97578.00;;;7.90
19040;BMP180;9652;49.014;12.052;2023-12-20T03:23:59;97572.00;;;7.90
19040;BMP180;9652;49.014;12.052;2023-12-20T03:26:26;97569.00;;;7.90
19040;BMP180;9652;49.014;12.052;2023-12-20T03:28:53;97576.00;;;7.70
19040;BMP180;9652;49.014;12.052;2023-12-20T03:31:21;97585.00;;;7.90
19040;BMP180;9652;49.014;12.052;2023-12-20T03:33:48;97577.00;;;7.90
19040;BMP180;9652;49.014;12.052;2023-12-20T03:36:16;97563.00;;;7.90
19040;BMP180;9652;49.014;12.052;2023-12-20T03:38:43;97580.00;;;7.90
19040;BMP180;9652;49.014;12.052;2023-12-20T03:41:11;97581.00;;;7.90
19040;BMP180;9652;49.014;12.052;2023-12-20T03:43:38;97573.00;;;8.00
19040;BMP180;9652;49.014;12.052;2023-12-20T03:46:05;97587.00;;;7.90
19040;BMP180;9652;49.014;12.052;2023-12-20T03:48:35;97582.00;;;7.90
19040;BMP180;9652;49.014;12.052;2023-12-20T03:51:02;97588.00;;;7.90
19040;BMP180;9652;49.014;12.052;2023-12-20T03:53:30;97588.00;;;7.90
19040;BMP180;9652;49.014;12.052;2023-12-20T03:55:57;97596.00;;;7.90
19040;BMP180;9652;49.014;12.052;2023-12-20T03:58:24;97585.00;;;7.90
19040;BMP180;9652;49.014;12.052;2023-12-20T04:00:51;97596.00;;;7.90
19040;BMP180;9652;49.014;12.052;2023-12-20T04:03:18;97602.00;;;7.90
19040;BMP180;9652;49.014;12.052;2023-12-20T04:05:46;97593.00;;;7.90
19040;BMP180;9652;49.014;12.052;2023-12-20T04:08:13;97598.00;;;7.90
19040;BMP180;9652;49.014;12.052;2023-12-20T04:10:40;97598.00;;;7.90
19040;BMP180;9652;49.014;12.052;2023-12-20T04:13:07;97595.00;;;7.90
19040;BMP180;9652;49.014;12.052;2023-12-20T04:15:34;97598.00;;;7.90
19040;BMP180;9652;49.014;12.052;2023-12-20T04:18:01;97602.00;;;7.90
19040;BMP180;9652;49.014;12.052;2023-12-20T04:20:28;97604.00;;;7.90
19040;BMP180;9652;49.014;12.052;2023-12-20T04:22:57;97595.00;;;7.90
19040;BMP180;9652;49.014;12.052;2023-12-20T04:25:24;97605.00;;;7.90
19040;BMP180;9652;49.014;12.052;2023-12-20T04:27:52;97601.00;;;7.80
19040;BMP180;9652;49.014;12.052;2023-12-20T04:30:19;97608.00;;;7.80
19040;BMP180;9652;49.014;12.052;2023-12-20T04:32:46;97605.00;;;7.80
19040;BMP180;9652;49.014;12.052;2023-12-20T04:35:13;97611.00;;;7.80
19040;BMP180;9652;49.014;12.052;2023-12-20T04:37:40;97614.00;;;7.80
19040;BMP180;9652;49.014;12.052;2023-12-20T04:40:09;97603.00;;;7.80
19040;BMP180;9652;49.014;12.052;2023-12-20T04:42:37;97590.00;;;7.80
19040;BMP180;9652;49.014;12.052;2023-12-20T04:45:05;97638.00;;;7.80
19040;BMP180;9652;49.014;12.052;2023-12-20T04:47:32;97612.00;;;7.80
19040;BMP180;9652;49.014;12.052;2023-12-20T04:49:59;97616.00;;;7.80
19040;BMP180;9652;49.014;12.052;2023-12-20T04:52:27;97617.00;;;7.90
19040;BMP180;9652;49.014;12.052;2023-12-20T04:54:55;97604.00;;;7.90
19040;BMP180;9652;49.014;12.052;2023-12-20T04:57:23;97604.00;;;7.90
19040;BMP180;9652;49.014;12.052;2023-12-20T04:59:50;97615.00;;;7.90
19040;BMP180;9652;49.014;12.052;2023-12-20T05:02:17;97604.00;;;7.90
19040;BMP180;9652;49.014;12.052;2023-12-20T05:04:44;97600.00;;;7.90
19040;BMP180;9652;49.014;12.052;2023-12-20T05:07:11;97601.00;;;7.90
19040;BMP180;9652;49.014;12.052;2023-12-20T05:09:38;97603.00;;;7.90
19040;BMP180;9652;49.014;12.052;2023-12-20T05:12:07;97596.00;;;7.90
19040;BMP180;9652;49.014;12.052;2023-12-20T05:14:36;97589.00;;;7.90
19040;BMP180;9652;49.014;12.052;2023-12-20T05:17:03;97606.00;;;7.90
19040;BMP180;9652;49.014;12.052;2023-12-20T05:19:30;97602.00;;;7.80
19040;BMP180;9652;49.014;12.052;2023-12-20T05:22:01;97612.00;;;7.80
19040;BMP180;9652;49.014;12.052;2023-12-20T05:24:28;97616.00;;;7.80
19040;BMP180;9652;49.014;12.052;2023-12-20T05:26:55;97622.00;;;7.90
19040;BMP180;9652;49.014;12.052;2023-12-20T05:29:22;97629.00;;;7.90
19040;BMP180;9652;49.014;12.052;2023-12-20T05:31:51;97623.00;;;7.90
19040;BMP180;9652;49.014;12.052;2023-12-20T05:34:18;97629.00;;;7.90
19040;BMP180;9652;49.014;12.052;2023-12-20T05:36:45;97636.00;;;7.90
19040;BMP180;9652;49.014;12.052;2023-12-20T05:39:12;97630.00;;;7.90
19040;BMP180;9652;49.014;12.052;2023-12-20T05:41:39;97625.00;;;7.90
19040;BMP180;9652;49.014;12.052;2023-12-20T05:44:06;97633.00;;;7.90
19040;BMP180;9652;49.014;12.052;2023-12-20T05:46:33;97633.00;;;8.00
19040;BMP180;9652;49.014;12.052;2023-12-20T05:49:01;97641.00;;;8.00
19040;BMP180;9652;49.014;12.052;2023-12-20T05:51:29;97646.00;;;8.00
19040;BMP180;9652;49.014;12.052;2023-12-20T05:53:56;97658.00;;;8.00
19040;BMP180;9652;49.014;12.052;2023-12-20T05:56:23;97658.00;;;8.00
19040;BMP180;9652;49.014;12.052;2023-12-20T05:58:50;97656.00;;;8.00
19040;BMP180;9652;49.014;12.052;2023-12-20T06:01:17;97665.00;;;8.00
19040;BMP180;9652;49.014;12.052;2023-12-20T06:03:44;97661.00;;;8.00
19040;BMP180;9652;49.014;12.052;2023-12-20T06:06:13;97666.00;;;8.00
19040;BMP180;9652;49.014;12.052;2023-12-20T06:08:41;97672.00;;;8.00
19040;BMP180;9652;49.014;12.052;2023-12-20T06:11:09;97646.00;;;8.00
19040;BMP180;9652;49.014;12.052;2023-12-20T06:13:36;97671.00;;;8.00
19040;BMP180;9652;49.014;12.052;2023-12-20T06:16:05;97677.00;;;8.00
19040;BMP180;9652;49.014;12.052;2023-12-20T06:18:32;97675.00;;;8.00
19040;BMP180;9652;49.014;12.052;2023-12-20T06:20:59;97663.00;;;8.00
19040;BMP180;9652;49.014;12.052;2023-12-20T06:23:28;97699.00;;;8.00
19040;BMP180;9652;49.014;12.052;2023-12-20T06:25:55;97668.00;;;8.00
19040;BMP180;9652;49.014;12.052;2023-12-20T06:28:22;97687.00;;;8.00
19040;BMP180;9652;49.014;12.052;2023-12-20T06:30:49;97691.00;;;8.00
19040;BMP180;9652;49.014;12.052;2023-12-20T06:33:18;97706.00;;;8.00
19040;BMP180;9652;49.014;12.052;2023-12-20T06:35:47;97684.00;;;8.00
19040;BMP180;9652;49.014;12.052;2023-12-20T06:38:14;97694.00;;;8.00
19040;BMP180;9652;49.014;12.052;2023-12-20T06:40:43;97681.00;;;8.00
19040;BMP180;9652;49.014;12.052;2023-12-20T06:43:10;97694.00;;;8.00
19040;BMP180;9652;49.014;12.052;2023-12-20T06:45:37;97679.00;;;8.00
19040;BMP180;9652;49.014;12.052;2023-12-20T06:48:05;97672.00;;;8.00
19040;BMP180;9652;49.014;12.052;2023-12-20T06:50:32;97687.00;;;8.00
19040;BMP180;9652;49.014;12.052;2023-12-20T06:53:00;97706.00;;;8.00
19040;BMP180;9652;49.014;12.052;2023-12-20T06:55:33;97698.00;;;8.00
19040;BMP180;9652;49.014;12.052;2023-12-20T06:58:02;97720.00;;;8.00
19040;BMP180;9652;49.014;12.052;2023-12-20T07:00:28;97720.00;;;8.00
19040;BMP180;9652;49.014;12.052;2023-12-20T07:02:55;97725.00;;;7.90
19040;BMP180;9652;49.014;12.052;2023-12-20T07:05:22;97725.00;;;7.90
19040;BMP180;9652;49.014;12.052;2023-12-20T07:07:49;97732.00;;;7.90
19040;BMP180;9652;49.014;12.052;2023-12-20T07:10:16;97726.00;;;7.90
19040;BMP180;9652;49.014;12.052;2023-12-20T07:12:43;97739.00;;;7.90
19040;BMP180;9652;49.014;12.052;2023-12-20T07:15:12;97745.00;;;7.90
19040;BMP180;9652;49.014;12.052;2023-12-20T07:17:39;97741.00;;;7.90
19040;BMP180;9652;49.014;12.052;2023-12-20T07:20:08;97735.00;;;7.90
19040;BMP180;9652;49.014;12.052;2023-12-20T07:22:36;97731.00;;;7.90
19040;BMP180;9652;49.014;12.052;2023-12-20T07:25:05;97741.00;;;7.90
19040;BMP180;9652;49.014;12.052;2023-12-20T07:27:32;97741.00;;;7.90
19040;BMP180;9652;49.014;12.052;2023-12-20T07:29:59;97743.00;;;7.90
19040;BMP180;9652;49.014;12.052;2023-12-20T07:32:28;97742.00;;;7.90
19040;BMP180;9652;49.014;12.052;2023-12-20T07:34:55;97752.00;;;7.90
19040;BMP180;9652;49.014;12.052;2023-12-20T07:37:23;97745.00;;;7.90
19040;BMP180;9652;49.014;12.052;2023-12-20T07:39:50;97688.00;;;7.90
19040;BMP180;9652;49.014;12.052;2023-12-20T07:42:17;97762.00;;;7.90
19040;BMP180;9652;49.014;12.052;2023-12-20T07:44:45;97719.00;;;7.90
19040;BMP180;9652;49.014;12.052;2023-12-20T07:47:12;97786.00;;;7.90
19040;BMP180;9652;49.014;12.052;2023-12-20T07:49:44;97787.00;;;7.90
19040;BMP180;9652;49.014;12.052;2023-12-20T07:52:11;97776.00;;;7.90
19040;BMP180;9652;49.014;12.052;2023-12-20T07:54:38;97789.00;;;7.90
19040;BMP180;9652;49.014;12.052;2023-12-20T07:57:05;97784.00;;;7.90
19040;BMP180;9652;49.014;12.052;2023-12-20T07:59:32;97786.00;;;8.00
19040;BMP180;9652;49.014;12.052;2023-12-20T08:01:59;97770.00;;;8.00
19040;BMP180;9652;49.014;12.052;2023-12-20T08:04:27;97794.00;;;7.80
19040;BMP180;9652;49.014;12.052;2023-12-20T08:06:55;97798.00;;;8.00
19040;BMP180;9652;49.014;12.052;2023-12-20T08:09:22;97809.00;;;8.00
19040;BMP180;9652;49.014;12.052;2023-12-20T08:11:49;97811.00;;;8.00
19040;BMP180;9652;49.014;12.052;2023-12-20T08:14:16;97773.00;;;8.10
19040;BMP180;9652;49.014;12.052;2023-12-20T08:16:43;97813.00;;;8.10
19040;BMP180;9652;49.014;12.052;2023-12-20T08:19:10;97814.00;;;8.10
19040;BMP180;9652;49.014;12.052;2023-12-20T08:21:37;97812.00;;;8.10
19040;BMP180;9652;49.014;12.052;2023-12-20T08:24:08;97821.00;;;8.10
19040;BMP180;9652;49.014;12.052;2023-12-20T08:26:35;97802.00;;;8.10
19040;BMP180;9652;49.014;12.052;2023-12-20T08:29:02;97821.00;;;8.20
19040;BMP180;9652;49.014;12.052;2023-12-20T08:31:29;97817.00;;;8.20
19040;BMP180;9652;49.014;12.052;2023-12-20T08:33:56;97824.00;;;8.20
19040;BMP180;9652;49.014;12.052;2023-12-20T08:36:23;97820.00;;;8.20
19040;BMP180;9652;49.014;12.052;2023-12-20T08:38:49;97829.00;;;8.30
19040;BMP180;9652;49.014;12.052;2023-12-20T08:41:18;97817.00;;;8.30
19040;BMP180;9652;49.014;12.052;2023-12-20T08:43:46;97797.00;;;8.30
19040;BMP180;9652;49.014;12.052;2023-12-20T08:46:14;97827.00;;;8.30
19040;BMP180;9652;49.014;12.052;2023-12-20T08:48:41;97819.00;;;8.40
19040;BMP180;9652;49.014;12.052;2023-12-20T08:51:10;97808.00;;;8.30
19040;BMP180;9652;49.014;12.052;2023-12-20T08:53:37;97810.00;;;8.40
19040;BMP180;9652;49.014;12.052;2023-12-20T08:56:04;97824.00;;;8.40
19040;BMP180;9652;49.014;12.052;2023-12-20T08:58:33;97817.00;;;8.40
19040;BMP180;9652;49.014;12.052;2023-12-20T09:01:01;97824.00;;;8.50
19040;BMP180;9652;49.014;12.052;2023-12-20T09:03:28;97824.00;;;8.50
19040;BMP180;9652;49.014;12.052;2023-12-20T09:05:55;97813.00;;;8.50
19040;BMP180;9652;49.014;12.052;2023-12-20T09:08:21;97809.00;;;8.50
19040;BMP180;9652;49.014;12.052;2023-12-20T09:10:48;97809.00;;;8.60
19040;BMP180;9652;49.014;12.052;2023-12-20T09:13:16;97762.00;;;8.60
19040;BMP180;9652;49.014;12.052;2023-12-20T09:15:44;97798.00;;;8.60
19040;BMP180;9652;49.014;12.052;2023-12-20T09:18:11;97797.00;;;8.60
19040;BMP180;9652;49.014;12.052;2023-12-20T09:20:38;97807.00;;;8.70
19040;BMP180;9652;49.014;12.052;2023-12-20T09:23:05;97806.00;;;8.70
19040;BMP180;9652;49.014;12.052;2023-12-20T09:25:32;97792.00;;;8.70
19040;BMP180;9652;49.014;12.052;2023-12-20T09:27:59;97736.00;;;8.70
19040;BMP180;9652;49.014;12.052;2023-12-20T09:30:26;97819.00;;;8.70
19040;BMP180;9652;49.014;12.052;2023-12-20T09:32:56;97818.00;;;8.70
19040;BMP180;9652;49.014;12.052;2023-12-20T09:35:23;97817.00;;;8.80
19040;BMP180;9652;49.014;12.052;2023-12-20T09:37:51;97830.00;;;8.80
19040;BMP180;9652;49.014;12.052;2023-12-20T09:40:19;97804.00;;;8.80
19040;BMP180;9652;49.014;12.052;2023-12-20T09:42:54;97813.00;;;8.80
19040;BMP180;9652;49.014;12.052;2023-12-20T09:45:22;97805.00;;;8.90
19040;BMP180;9652;49.014;12.052;2023-12-20T09:47:52;97792.00;;;8.90
19040;BMP180;9652;49.014;12.052;2023-12-20T09:50:22;97814.00;;;9.00
19040;BMP180;9652;49.014;12.052;2023-12-20T09:52:52;97787.00;;;9.00
19040;BMP180;9652;49.014;12.052;2023-12-20T09:55:20;97788.00;;;9.10
19040;BMP180;9652;49.014;12.052;2023-12-20T09:57:48;97789.00;;;9.10
19040;BMP180;9652;49.014;12.052;2023-12-20T10:00:16;97762.00;;;9.10
19040;BMP180;9652;49.014;12.052;2023-12-20T10:02:56;97795.00;;;9.10
19040;BMP180;9652;49.014;12.052;2023-12-20T10:05:28;97810.00;;;9.20
19040;BMP180;9652;49.014;12.052;2023-12-20T10:07:56;97791.00;;;9.20
19040;BMP180;9652;49.014;12.052;2023-12-20T10:10:23;97794.00;;;9.30
19040;BMP180;9652;49.014;12.052;2023-12-20T10:13:05;97771.00;;;9.20
19040;BMP180;9652;49.014;12.052;2023-12-20T10:15:33;97755.00;;;9.30
19040;BMP180;9652;49.014;12.052;2023-12-20T10:18:00;97778.00;;;9.40
19040;BMP180;9652;49.014;12.052;2023-12-20T10:20:29;97751.00;;;9.40
19040;BMP180;9652;49.014;12.052;2023-12-20T10:22:57;97780.00;;;9.50
19040;BMP180;9652;49.014;12.052;2023-12-20T10:25:25;97792.00;;;9.50
19040;BMP180;9652;49.014;12.052;2023-12-20T10:28:11;97787.00;;;9.60
19040;BMP180;9652;49.014;12.052;2023-12-20T10:30:39;97766.00;;;9.70
19040;BMP180;9652;49.014;12.052;2023-12-20T10:33:07;97783.00;;;9.80
19040;BMP180;9652;49.014;12.052;2023-12-20T10:35:36;97780.00;;;9.80
19040;BMP180;9652;49.014;12.052;2023-12-20T10:38:06;97780.00;;;9.90
19040;BMP180;9652;49.014;12.052;2023-12-20T10:40:35;97754.00;;;9.90
19040;BMP180;9652;49.014;12.052;2023-12-20T10:43:04;97780.00;;;9.90
19040;BMP180;9652;49.014;12.052;2023-12-20T10:45:32;97789.00;;;9.90
19040;BMP180;9652;49.014;12.052;2023-12-20T10:47:59;97790.00;;;9.90
19040;BMP180;9652;49.014;12.052;2023-12-20T10:50:29;97787.00;;;9.90
19040;BMP180;9652;49.014;12.052;2023-12-20T10:52:58;97806.00;;;9.90
19040;BMP180;9652;49.014;12.052;2023-12-20T10:55:26;97777.00;;;10.00
19040;BMP180;9652;49.014;12.052;2023-12-20T10:57:59;97800.00;;;10.00
19040;BMP180;9652;49.014;12.052;2023-12-20T11:00:29;97736.00;;;10.10
19040;BMP180;9652;49.014;12.052;2023-12-20T11:03:01;97793.00;;;10.10
19040;BMP180;9652;49.014;12.052;2023-12-20T11:05:38;97741.00;;;10.10
19040;BMP180;9652;49.014;12.052;2023-12-20T11:08:14;97781.00;;;10.10
19040;BMP180;9652;49.014;12.052;2023-12-20T11:10:52;97773.00;;;10.10
19040;BMP180;9652;49.014;12.052;2023-12-20T11:13:29;97784.00;;;10.10
19040;BMP180;9652;49.014;12.052;2023-12-20T11:15:57;97777.00;;;10.10
19040;BMP180;9652;49.014;12.052;2023-12-20T11:18:29;97781.00;;;10.00
19040;BMP180;9652;49.014;12.052;2023-12-20T11:21:01;97787.00;;;10.00
19040;BMP180;9652;49.014;12.052;2023-12-20T11:23:32;97775.00;;;10.00
19040;BMP180;9652;49.014;12.052;2023-12-20T11:26:01;97782.00;;;10.00
19040;BMP180;9652;49.014;12.052;2023-12-20T11:28:29;97769.00;;;10.00
19040;BMP180;9652;49.014;12.052;2023-12-20T11:30:58;97776.00;;;9.90
19040;BMP180;9652;49.014;12.052;2023-12-20T11:33:29;97772.00;;;10.00
19040;BMP180;9652;49.014;12.052;2023-12-20T11:35:57;97770.00;;;10.00
19040;BMP180;9652;49.014;12.052;2023-12-20T11:38:26;97757.00;;;9.90
19040;BMP180;9652;49.014;12.052;2023-12-20T11:40:55;97759.00;;;9.90
19040;BMP180;9652;49.014;12.052;2023-12-20T11:43:31;97747.00;;;9.90
19040;BMP180;9652;49.014;12.052;2023-12-20T11:46:03;97767.00;;;9.90
19040;BMP180;9652;49.014;12.052;2023-12-20T11:48:32;97748.00;;;9.90
19040;BMP180;9652;49.014;12.052;2023-12-20T11:50:59;97728.00;;;9.90
19040;BMP180;9652;49.014;12.052;2023-12-20T11:53:26;97746.00;;;9.90
19040;BMP180;9652;49.014;12.052;2023-12-20T11:55:55;97715.00;;;10.00
19040;BMP180;9652;49.014;12.052;2023-12-20T11:58:22;97728.00;;;10.00
19040;BMP180;9652;49.014;12.052;2023-12-20T12:00:50;97723.00;;;10.00
19040;BMP180;9652;49.014;12.052;2023-12-20T12:03:17;97731.00;;;10.10
19040;BMP180;9652;49.014;12.052;2023-12-20T12:05:47;97726.00;;;10.10
19040;BMP180;9652;49.014;12.052;2023-12-20T12:08:14;97720.00;;;10.10
19040;BMP180;9652;49.014;12.052;2023-12-20T12:10:41;97704.00;;;10.20
19040;BMP180;9652;49.014;12.052;2023-12-20T12:13:10;97721.00;;;10.20
19040;BMP180;9652;49.014;12.052;2023-12-20T12:15:37;97720.00;;;10.20
19040;BMP180;9652;49.014;12.052;2023-12-20T12:18:05;97709.00;;;10.20
19040;BMP180;9652;49.014;12.052;2023-12-20T12:20:32;97695.00;;;10.30
19040;BMP180;9652;49.014;12.052;2023-12-20T12:23:02;97741.00;;;10.20
19040;BMP180;9652;49.014;12.052;2023-12-20T12:25:30;97712.00;;;10.20
19040;BMP180;9652;49.014;12.052;2023-12-20T12:27:58;97727.00;;;10.20
19040;BMP180;9652;49.014;12.052;2023-12-20T12:30:27;97735.00;;;10.20
19040;BMP180;9652;49.014;12.052;2023-12-20T12:32:56;97737.00;;;10.10
19040;BMP180;9652;49.014;12.052;2023-12-20T12:35:23;97744.00;;;10.10
19040;BMP180;9652;49.014;12.052;2023-12-20T12:37:51;97750.00;;;10.10
19040;BMP180;9652;49.014;12.052;2023-12-20T12:40:18;97744.00;;;10.10
19040;BMP180;9652;49.014;12.052;2023-12-20T12:42:46;97737.00;;;10.10
19040;BMP180;9652;49.014;12.052;2023-12-20T12:45:13;97747.00;;;10.10
19040;BMP180;9652;49.014;12.052;2023-12-20T12:47:42;97744.00;;;10.10
19040;BMP180;9652;49.014;12.052;2023-12-20T12:50:09;97732.00;;;10.20
19040;BMP180;9652;49.014;12.052;2023-12-20T12:52:36;97741.00;;;10.20
19040;BMP180;9652;49.014;12.052;2023-12-20T12:55:05;97718.00;;;10.20
19040;BMP180;9652;49.014;12.052;2023-12-20T12:57:32;97718.00;;;10.20
19040;BMP180;9652;49.014;12.052;2023-12-20T13:00:00;97743.00;;;10.20
19040;BMP180;9652;49.014;12.052;2023-12-20T13:02:28;97737.00;;;10.10
19040;BMP180;9652;49.014;12.052;2023-12-20T13:04:57;97725.00;;;10.10
19040;BMP180;9652;49.014;12.052;2023-12-20T13:07:26;97716.00;;;10.10
19040;BMP180;9652;49.014;12.052;2023-12-20T13:09:53;97718.00;;;10.10
19040;BMP180;9652;49.014;12.052;2023-12-20T13:12:20;97712.00;;;10.00
19040;BMP180;9652;49.014;12.052;2023-12-20T13:14:47;97714.00;;;10.00
19040;BMP180;9652;49.014;12.052;2023-12-20T13:17:15;97706.00;;;10.00
19040;BMP180;9652;49.014;12.052;2023-12-20T13:19:42;97701.00;;;10.00
19040;BMP180;9652;49.014;12.052;2023-12-20T13:22:10;97694.00;;;9.90
19040;BMP180;9652;49.014;12.052;2023-12-20T13:24:37;97709.00;;;10.00
19040;BMP180;9652;49.014;12.052;2023-12-20T13:27:05;97712.00;;;10.00
19040;BMP180;9652;49.014;12.052;2023-12-20T13:29:32;97722.00;;;10.00
19040;BMP180;9652;49.014;12.052;2023-12-20T13:31:59;97724.00;;;9.90
19040;BMP180;9652;49.014;12.052;2023-12-20T13:34:26;97720.00;;;10.00
19040;BMP180;9652;49.014;12.052;2023-12-20T13:36:53;97739.00;;;9.80
19040;BMP180;9652;49.014;12.052;2023-12-20T13:39:22;97724.00;;;10.00
19040;BMP180;9652;49.014;12.052;2023-12-20T13:41:49;97730.00;;;10.00
19040;BMP180;9652;49.014;12.052;2023-12-20T13:44:16;97730.00;;;10.00
19040;BMP180;9652;49.014;12.052;2023-12-20T13:46:43;97723.00;;;10.00
19040;BMP180;9652;49.014;12.052;2023-12-20T13:49:11;97710.00;;;10.00
19040;BMP180;9652;49.014;12.052;2023-12-20T13:51:38;97715.00;;;10.00
19040;BMP180;9652;49.014;12.052;2023-12-20T13:54:05;97719.00;;;10.10
19040;BMP180;9652;49.014;12.052;2023-12-20T13:56:34;97726.00;;;10.00
19040;BMP180;9652;49.014;12.052;2023-12-20T13:59:01;97730.00;;;10.10
19040;BMP180;9652;49.014;12.052;2023-12-20T14:01:28;97724.00;;;10.00
19040;BMP180;9652;49.014;12.052;2023-12-20T14:03:55;97737.00;;;10.00
19040;BMP180;9652;49.014;12.052;2023-12-20T14:06:22;97729.00;;;9.90
19040;BMP180;9652;49.014;12.052;2023-12-20T14:08:49;97736.00;;;9.90
19040;BMP180;9652;49.014;12.052;2023-12-20T14:11:16;97739.00;;;9.80
19040;BMP180;9652;49.014;12.052;2023-12-20T14:13:46;97746.00;;;9.80
19040;BMP180;9652;49.014;12.052;2023-12-20T14:16:13;97750.00;;;9.80
19040;BMP180;9652;49.014;12.052;2023-12-20T14:18:41;97756.00;;;9.70
19040;BMP180;9652;49.014;12.052;2023-12-20T14:21:08;97758.00;;;9.70
19040;BMP180;9652;49.014;12.052;2023-12-20T14:23:36;97758.00;;;9.60